<?xml version="1.0" encoding="UTF-8"?>
<gpx version="1.1" creator="2bulu-scraper" xmlns="http://www.topografix.com/GPX/1/1">
  <metadata><name>自贡大安区</name><desc>source: 2bulu.com trackId=84921389; exported 2026-09-01T15:01:14.465Z</desc>
    <bounds minlat="29.3693226" minlon="104.8422071" maxlat="29.3747571" maxlon="104.8493791"/>
    <link href="https://www.2bulu.com/track/t-TDUVGGSrCx3p%252FR2KBg5Tzw%253D%253D.htm"><text>2bulu 源页面</text></link>
  </metadata>
  <wpt lat="29.3725032" lon="104.8424104"><ele>274</ele><name>
        </name></wpt>
  <wpt lat="29.3700743" lon="104.844101"><ele>274</ele><name>
        </name></wpt>
  <wpt lat="29.3698077" lon="104.8449306"><ele>269</ele><name>
        </name></wpt>
  <wpt lat="29.3698842" lon="104.8449795"><ele>272</ele><name>
        </name></wpt>
  <wpt lat="29.3700566" lon="104.8453512"><ele>262</ele><name>
        </name></wpt>
  <wpt lat="29.3701002" lon="104.8455238"><ele>257</ele><name>
        </name></wpt>
  <wpt lat="29.3702435" lon="104.8456606"><ele>260</ele><name>
        </name></wpt>
  <wpt lat="29.3703007" lon="104.8457512"><ele>259</ele><name>
        </name></wpt>
  <wpt lat="29.3703509" lon="104.8459504"><ele>264</ele><name>
        </name></wpt>
  <wpt lat="29.3702172" lon="104.8460808"><ele>268</ele><name>
        </name></wpt>
  <wpt lat="29.370046" lon="104.8463283"><ele>262</ele><name>
        </name></wpt>
  <wpt lat="29.3698463" lon="104.846706"><ele>260</ele><name>
        </name></wpt>
  <wpt lat="29.3696625" lon="104.8470701"><ele>258</ele><name>
        </name></wpt>
  <wpt lat="29.369359" lon="104.8476141"><ele>257</ele><name>
        </name></wpt>
  <wpt lat="29.3693226" lon="104.8478306"><ele>256</ele><name>
        </name></wpt>
  <wpt lat="29.369325" lon="104.8480564"><ele>255</ele><name>
        </name></wpt>
  <wpt lat="29.3695679" lon="104.8481958"><ele>255</ele><name>
        </name></wpt>
  <wpt lat="29.3695679" lon="104.8481958"><ele>255</ele><name>
        </name></wpt>
  <wpt lat="29.3699628" lon="104.8481919"><ele>254</ele><name>
        </name></wpt>
  <wpt lat="29.3702369" lon="104.8481197"><ele>259</ele><name>
        </name></wpt>
  <wpt lat="29.370414" lon="104.8481176"><ele>261</ele><name>
        </name></wpt>
  <wpt lat="29.3706706" lon="104.848035"><ele>262</ele><name>
        </name></wpt>
  <wpt lat="29.3710405" lon="104.847971"><ele>277</ele><name>
        </name></wpt>
  <wpt lat="29.371303" lon="104.8480876"><ele>266</ele><name>
        </name></wpt>
  <wpt lat="29.3713758" lon="104.8480473"><ele>266</ele><name>
        </name></wpt>
  <wpt lat="29.3717516" lon="104.8477667"><ele>273</ele><name>
        </name></wpt>
  <wpt lat="29.3720765" lon="104.8472649"><ele>270</ele><name>
        </name></wpt>
  <wpt lat="29.3719702" lon="104.8471225"><ele>246</ele><name>
        </name></wpt>
  <wpt lat="29.3721032" lon="104.8465862"><ele>272</ele><name>
        </name></wpt>
  <wpt lat="29.3721032" lon="104.8465862"><ele>272</ele><name>
        </name></wpt>
  <wpt lat="29.3722732" lon="104.8465018"><ele>273</ele><name>
        </name></wpt>
  <wpt lat="29.3722732" lon="104.8465018"><ele>273</ele><name>
        </name></wpt>
  <wpt lat="29.3727998" lon="104.8472154"><ele>265</ele><name>
        </name></wpt>
  <wpt lat="29.3733225" lon="104.8474845"><ele>264</ele><name>
        </name></wpt>
  <wpt lat="29.3733219" lon="104.8476708"><ele>266</ele><name>
        </name></wpt>
  <wpt lat="29.3730999" lon="104.8482355"><ele>270</ele><name>
        </name></wpt>
  <wpt lat="29.3729219" lon="104.848293"><ele>268</ele><name>
        </name></wpt>
  <wpt lat="29.37261" lon="104.8485291"><ele>265</ele><name>
        </name></wpt>
  <wpt lat="29.372338" lon="104.8487836"><ele>262</ele><name>
        </name></wpt>
  <wpt lat="29.3719938" lon="104.8488201"><ele>259</ele><name>
        </name></wpt>
  <wpt lat="29.3722433" lon="104.8480083"><ele>261</ele><name>
        </name></wpt>
  <wpt lat="29.3722079" lon="104.8481125"><ele>264</ele><name>
        </name></wpt>
  <wpt lat="29.3725362" lon="104.8479414"><ele>260</ele><name>
        </name></wpt>
  <wpt lat="29.3727418" lon="104.8469302"><ele>262</ele><name>
        </name></wpt>
  <wpt lat="29.3726492" lon="104.8458639"><ele>263</ele><name>
        </name></wpt>
  <wpt lat="29.3732267" lon="104.8457802"><ele>264</ele><name>
        </name></wpt>
  <wpt lat="29.3731536" lon="104.8449987"><ele>275</ele><name>
        </name></wpt>
  <wpt lat="29.3731212" lon="104.844704"><ele>276</ele><name>
        </name></wpt>
  <wpt lat="29.3737636" lon="104.8433133"><ele>272</ele><name>
        </name></wpt>
  <wpt lat="29.3740462" lon="104.8430476"><ele>273</ele><name>
        </name></wpt>
  <wpt lat="29.3741336" lon="104.8429838"><ele>273</ele><name>
        </name></wpt>
  <trk><name>自贡大安区</name>
      <trkseg>
        <trkpt lat="29.372572" lon="104.8423593"><ele>276.45</ele><time>2026-05-16T03:07:28.000Z</time></trkpt>
        <trkpt lat="29.3725032" lon="104.8424104"><ele>276.45</ele><time>2026-05-16T03:07:40.000Z</time></trkpt>
        <trkpt lat="29.3724276" lon="104.84247"><ele>275.55</ele><time>2026-05-16T03:07:50.000Z</time></trkpt>
        <trkpt lat="29.3723376" lon="104.842537"><ele>275.16</ele><time>2026-05-16T03:08:02.000Z</time></trkpt>
        <trkpt lat="29.3722515" lon="104.8426051"><ele>275.03</ele><time>2026-05-16T03:08:14.000Z</time></trkpt>
        <trkpt lat="29.3721626" lon="104.8426707"><ele>275.02</ele><time>2026-05-16T03:08:26.000Z</time></trkpt>
        <trkpt lat="29.3720762" lon="104.8427386"><ele>275.1</ele><time>2026-05-16T03:08:40.000Z</time></trkpt>
        <trkpt lat="29.3719938" lon="104.8427996"><ele>275.22</ele><time>2026-05-16T03:08:54.000Z</time></trkpt>
        <trkpt lat="29.3719063" lon="104.8428565"><ele>275.5</ele><time>2026-05-16T03:09:08.000Z</time></trkpt>
        <trkpt lat="29.3718184" lon="104.8429152"><ele>275.4</ele><time>2026-05-16T03:09:30.000Z</time></trkpt>
        <trkpt lat="29.3717322" lon="104.842962"><ele>275.73</ele><time>2026-05-16T03:09:42.000Z</time></trkpt>
        <trkpt lat="29.3716504" lon="104.8430167"><ele>276.19</ele><time>2026-05-16T03:09:56.000Z</time></trkpt>
        <trkpt lat="29.3715782" lon="104.8430831"><ele>275.73</ele><time>2026-05-16T03:10:12.000Z</time></trkpt>
        <trkpt lat="29.3714954" lon="104.843133"><ele>275.27</ele><time>2026-05-16T03:10:24.000Z</time></trkpt>
        <trkpt lat="29.3714139" lon="104.8431806"><ele>275.33</ele><time>2026-05-16T03:10:36.000Z</time></trkpt>
        <trkpt lat="29.3713284" lon="104.8432287"><ele>275.41</ele><time>2026-05-16T03:10:48.000Z</time></trkpt>
        <trkpt lat="29.3712457" lon="104.8432768"><ele>275.44</ele><time>2026-05-16T03:11:00.000Z</time></trkpt>
        <trkpt lat="29.3711586" lon="104.8433304"><ele>275.3</ele><time>2026-05-16T03:11:14.000Z</time></trkpt>
        <trkpt lat="29.3710755" lon="104.8433804"><ele>275.09</ele><time>2026-05-16T03:11:26.000Z</time></trkpt>
        <trkpt lat="29.3710006" lon="104.8434416"><ele>275.33</ele><time>2026-05-16T03:11:38.000Z</time></trkpt>
        <trkpt lat="29.3709263" lon="104.8435005"><ele>276.23</ele><time>2026-05-16T03:11:50.000Z</time></trkpt>
        <trkpt lat="29.3708493" lon="104.8435531"><ele>277.24</ele><time>2026-05-16T03:12:02.000Z</time></trkpt>
        <trkpt lat="29.3707684" lon="104.8436001"><ele>278.08</ele><time>2026-05-16T03:12:14.000Z</time></trkpt>
        <trkpt lat="29.3706881" lon="104.8436557"><ele>278.67</ele><time>2026-05-16T03:12:26.000Z</time></trkpt>
        <trkpt lat="29.3706092" lon="104.8437245"><ele>278.92</ele><time>2026-05-16T03:12:38.000Z</time></trkpt>
        <trkpt lat="29.3705212" lon="104.8437839"><ele>278.95</ele><time>2026-05-16T03:12:50.000Z</time></trkpt>
        <trkpt lat="29.3704315" lon="104.8438309"><ele>279.44</ele><time>2026-05-16T03:13:02.000Z</time></trkpt>
        <trkpt lat="29.3704203" lon="104.8439278"><ele>279.85</ele><time>2026-05-16T03:13:24.000Z</time></trkpt>
        <trkpt lat="29.3704203" lon="104.8439278"><ele>279.85</ele><time>2026-05-16T03:13:47.000Z</time></trkpt>
        <trkpt lat="29.3704309" lon="104.8440377"><ele>277.97</ele><time>2026-05-16T03:14:02.000Z</time></trkpt>
        <trkpt lat="29.3704309" lon="104.8440377"><ele>277.97</ele><time>2026-05-16T03:14:19.000Z</time></trkpt>
        <trkpt lat="29.3704309" lon="104.8440377"><ele>277.97</ele><time>2026-05-16T03:15:11.000Z</time></trkpt>
        <trkpt lat="29.3704309" lon="104.8440377"><ele>277.97</ele><time>2026-05-16T03:15:14.000Z</time></trkpt>
        <trkpt lat="29.3704309" lon="104.8440377"><ele>277.97</ele><time>2026-05-16T03:15:57.000Z</time></trkpt>
        <trkpt lat="29.3704309" lon="104.8440377"><ele>277.97</ele><time>2026-05-16T03:16:00.000Z</time></trkpt>
        <trkpt lat="29.3704309" lon="104.8440377"><ele>277.97</ele><time>2026-05-16T03:16:15.000Z</time></trkpt>
        <trkpt lat="29.3704309" lon="104.8440377"><ele>277.97</ele><time>2026-05-16T03:16:20.000Z</time></trkpt>
        <trkpt lat="29.3704309" lon="104.8440377"><ele>277.97</ele><time>2026-05-16T03:16:29.000Z</time></trkpt>
        <trkpt lat="29.3704309" lon="104.8440377"><ele>277.97</ele><time>2026-05-16T03:16:48.000Z</time></trkpt>
        <trkpt lat="29.3704309" lon="104.8440377"><ele>277.97</ele><time>2026-05-16T03:16:59.000Z</time></trkpt>
        <trkpt lat="29.3704309" lon="104.8440377"><ele>277.97</ele><time>2026-05-16T03:17:02.000Z</time></trkpt>
        <trkpt lat="29.3704309" lon="104.8440377"><ele>277.97</ele><time>2026-05-16T03:17:23.000Z</time></trkpt>
        <trkpt lat="29.3704309" lon="104.8440377"><ele>277.97</ele><time>2026-05-16T03:17:28.000Z</time></trkpt>
        <trkpt lat="29.3704309" lon="104.8440377"><ele>277.97</ele><time>2026-05-16T03:17:45.000Z</time></trkpt>
        <trkpt lat="29.3703759" lon="104.8439869"><ele>281.76</ele><time>2026-05-16T03:18:18.000Z</time></trkpt>
        <trkpt lat="29.3703759" lon="104.8439869"><ele>281.76</ele><time>2026-05-16T03:18:57.000Z</time></trkpt>
        <trkpt lat="29.3702729" lon="104.8440072"><ele>281.72</ele><time>2026-05-16T03:19:49.000Z</time></trkpt>
        <trkpt lat="29.3701739" lon="104.844029"><ele>283.16</ele><time>2026-05-16T03:20:15.000Z</time></trkpt>
        <trkpt lat="29.3700844" lon="104.8440627"><ele>284.29</ele><time>2026-05-16T03:20:33.000Z</time></trkpt>
        <trkpt lat="29.3700844" lon="104.8440627"><ele>284.29</ele><time>2026-05-16T03:22:11.000Z</time></trkpt>
        <trkpt lat="29.3700844" lon="104.8440627"><ele>284.29</ele><time>2026-05-16T03:22:18.000Z</time></trkpt>
        <trkpt lat="29.3700844" lon="104.8440627"><ele>284.29</ele><time>2026-05-16T03:22:31.000Z</time></trkpt>
        <trkpt lat="29.3700844" lon="104.8440627"><ele>284.29</ele><time>2026-05-16T03:22:42.000Z</time></trkpt>
        <trkpt lat="29.3700844" lon="104.8440627"><ele>284.29</ele><time>2026-05-16T03:23:05.000Z</time></trkpt>
        <trkpt lat="29.3700844" lon="104.8440627"><ele>284.29</ele><time>2026-05-16T03:23:08.000Z</time></trkpt>
        <trkpt lat="29.3700844" lon="104.8440627"><ele>284.29</ele><time>2026-05-16T03:23:21.000Z</time></trkpt>
        <trkpt lat="29.3700987" lon="104.8442176"><ele>284.11</ele><time>2026-05-16T03:24:28.000Z</time></trkpt>
        <trkpt lat="29.3700987" lon="104.8442176"><ele>284.11</ele><time>2026-05-16T03:24:29.000Z</time></trkpt>
        <trkpt lat="29.3701213" lon="104.8440995"><ele>284.9</ele><time>2026-05-16T03:24:34.000Z</time></trkpt>
        <trkpt lat="29.3701213" lon="104.8440995"><ele>284.9</ele><time>2026-05-16T03:24:37.000Z</time></trkpt>
        <trkpt lat="29.3701213" lon="104.8440995"><ele>284.9</ele><time>2026-05-16T03:24:48.000Z</time></trkpt>
        <trkpt lat="29.3701213" lon="104.8440995"><ele>284.9</ele><time>2026-05-16T03:25:01.000Z</time></trkpt>
        <trkpt lat="29.3701213" lon="104.8440995"><ele>284.9</ele><time>2026-05-16T03:25:08.000Z</time></trkpt>
        <trkpt lat="29.3701213" lon="104.8440995"><ele>284.9</ele><time>2026-05-16T03:25:23.000Z</time></trkpt>
        <trkpt lat="29.3701213" lon="104.8440995"><ele>284.9</ele><time>2026-05-16T03:25:24.000Z</time></trkpt>
        <trkpt lat="29.3701213" lon="104.8440995"><ele>284.9</ele><time>2026-05-16T03:25:37.000Z</time></trkpt>
        <trkpt lat="29.3701213" lon="104.8440995"><ele>284.9</ele><time>2026-05-16T03:25:44.000Z</time></trkpt>
        <trkpt lat="29.3701213" lon="104.8440995"><ele>284.9</ele><time>2026-05-16T03:26:01.000Z</time></trkpt>
        <trkpt lat="29.3701213" lon="104.8440995"><ele>284.9</ele><time>2026-05-16T03:26:22.000Z</time></trkpt>
        <trkpt lat="29.3701213" lon="104.8440995"><ele>284.9</ele><time>2026-05-16T03:26:41.000Z</time></trkpt>
        <trkpt lat="29.3701213" lon="104.8440995"><ele>284.9</ele><time>2026-05-16T03:26:42.000Z</time></trkpt>
        <trkpt lat="29.3701213" lon="104.8440995"><ele>284.9</ele><time>2026-05-16T03:26:53.000Z</time></trkpt>
        <trkpt lat="29.3701213" lon="104.8440995"><ele>284.9</ele><time>2026-05-16T03:27:08.000Z</time></trkpt>
        <trkpt lat="29.3701213" lon="104.8440995"><ele>284.9</ele><time>2026-05-16T03:27:23.000Z</time></trkpt>
        <trkpt lat="29.3701213" lon="104.8440995"><ele>284.9</ele><time>2026-05-16T03:27:50.000Z</time></trkpt>
        <trkpt lat="29.3701213" lon="104.8440995"><ele>284.9</ele><time>2026-05-16T03:28:01.000Z</time></trkpt>
        <trkpt lat="29.3701213" lon="104.8440995"><ele>284.9</ele><time>2026-05-16T03:28:10.000Z</time></trkpt>
        <trkpt lat="29.3701213" lon="104.8440995"><ele>284.9</ele><time>2026-05-16T03:28:25.000Z</time></trkpt>
        <trkpt lat="29.3701213" lon="104.8440995"><ele>284.9</ele><time>2026-05-16T03:28:32.000Z</time></trkpt>
        <trkpt lat="29.3701213" lon="104.8440995"><ele>284.9</ele><time>2026-05-16T03:28:43.000Z</time></trkpt>
        <trkpt lat="29.3701213" lon="104.8440995"><ele>284.9</ele><time>2026-05-16T03:29:16.000Z</time></trkpt>
        <trkpt lat="29.3701213" lon="104.8440995"><ele>284.9</ele><time>2026-05-16T03:29:25.000Z</time></trkpt>
        <trkpt lat="29.3701213" lon="104.8440995"><ele>284.9</ele><time>2026-05-16T03:29:30.000Z</time></trkpt>
        <trkpt lat="29.3701213" lon="104.8440995"><ele>284.9</ele><time>2026-05-16T03:30:07.000Z</time></trkpt>
        <trkpt lat="29.3701213" lon="104.8440995"><ele>284.9</ele><time>2026-05-16T03:30:58.000Z</time></trkpt>
        <trkpt lat="29.3701213" lon="104.8440995"><ele>284.9</ele><time>2026-05-16T03:31:19.000Z</time></trkpt>
        <trkpt lat="29.3701213" lon="104.8440995"><ele>284.9</ele><time>2026-05-16T03:31:32.000Z</time></trkpt>
        <trkpt lat="29.3701213" lon="104.8440995"><ele>284.9</ele><time>2026-05-16T03:31:43.000Z</time></trkpt>
        <trkpt lat="29.3701213" lon="104.8440995"><ele>284.9</ele><time>2026-05-16T03:31:54.000Z</time></trkpt>
        <trkpt lat="29.3701213" lon="104.8440995"><ele>284.9</ele><time>2026-05-16T03:32:21.000Z</time></trkpt>
        <trkpt lat="29.3701213" lon="104.8440995"><ele>284.9</ele><time>2026-05-16T03:32:34.000Z</time></trkpt>
        <trkpt lat="29.3701213" lon="104.8440995"><ele>284.9</ele><time>2026-05-16T03:33:01.000Z</time></trkpt>
        <trkpt lat="29.3701213" lon="104.8440995"><ele>284.9</ele><time>2026-05-16T03:33:22.000Z</time></trkpt>
        <trkpt lat="29.3701213" lon="104.8440995"><ele>284.9</ele><time>2026-05-16T03:33:33.000Z</time></trkpt>
        <trkpt lat="29.3701213" lon="104.8440995"><ele>284.9</ele><time>2026-05-16T03:33:48.000Z</time></trkpt>
        <trkpt lat="29.3701213" lon="104.8440995"><ele>284.9</ele><time>2026-05-16T03:33:57.000Z</time></trkpt>
        <trkpt lat="29.3701213" lon="104.8440995"><ele>284.9</ele><time>2026-05-16T03:34:22.000Z</time></trkpt>
        <trkpt lat="29.3701213" lon="104.8440995"><ele>284.9</ele><time>2026-05-16T03:35:01.000Z</time></trkpt>
        <trkpt lat="29.3701903" lon="104.8440226"><ele>282.12</ele><time>2026-05-16T03:35:22.000Z</time></trkpt>
        <trkpt lat="29.3701903" lon="104.8440226"><ele>282.12</ele><time>2026-05-16T03:36:34.000Z</time></trkpt>
        <trkpt lat="29.3702736" lon="104.8439822"><ele>279.91</ele><time>2026-05-16T03:36:44.000Z</time></trkpt>
        <trkpt lat="29.3703618" lon="104.8439577"><ele>277.7</ele><time>2026-05-16T03:36:54.000Z</time></trkpt>
        <trkpt lat="29.370454" lon="104.8439342"><ele>276.15</ele><time>2026-05-16T03:37:08.000Z</time></trkpt>
        <trkpt lat="29.3705547" lon="104.8439386"><ele>274.3</ele><time>2026-05-16T03:37:22.000Z</time></trkpt>
        <trkpt lat="29.3705593" lon="104.8438641"><ele>273.33</ele><time>2026-05-16T03:38:08.000Z</time></trkpt>
        <trkpt lat="29.370553" lon="104.8438324"><ele>273.81</ele><time>2026-05-16T03:38:10.000Z</time></trkpt>
        <trkpt lat="29.370553" lon="104.8438324"><ele>273.81</ele><time>2026-05-16T03:38:27.000Z</time></trkpt>
        <trkpt lat="29.370553" lon="104.8438324"><ele>273.81</ele><time>2026-05-16T03:38:32.000Z</time></trkpt>
        <trkpt lat="29.370553" lon="104.8438324"><ele>273.81</ele><time>2026-05-16T03:38:45.000Z</time></trkpt>
        <trkpt lat="29.3704862" lon="104.8439371"><ele>274.08</ele><time>2026-05-16T03:39:46.000Z</time></trkpt>
        <trkpt lat="29.3704862" lon="104.8439371"><ele>274.08</ele><time>2026-05-16T03:40:13.000Z</time></trkpt>
        <trkpt lat="29.3703858" lon="104.8439984"><ele>276.45</ele><time>2026-05-16T03:40:27.000Z</time></trkpt>
        <trkpt lat="29.3702943" lon="104.8440026"><ele>278.13</ele><time>2026-05-16T03:40:47.000Z</time></trkpt>
        <trkpt lat="29.3702114" lon="104.8440372"><ele>279.33</ele><time>2026-05-16T03:40:57.000Z</time></trkpt>
        <trkpt lat="29.3701187" lon="104.8440599"><ele>280.25</ele><time>2026-05-16T03:41:07.000Z</time></trkpt>
        <trkpt lat="29.3700386" lon="104.8441066"><ele>281.97</ele><time>2026-05-16T03:41:17.000Z</time></trkpt>
        <trkpt lat="29.3699616" lon="104.8441632"><ele>282.63</ele><time>2026-05-16T03:41:33.000Z</time></trkpt>
        <trkpt lat="29.3698761" lon="104.8441403"><ele>282.29</ele><time>2026-05-16T03:41:45.000Z</time></trkpt>
        <trkpt lat="29.369781" lon="104.8441277"><ele>281.97</ele><time>2026-05-16T03:41:59.000Z</time></trkpt>
        <trkpt lat="29.3697643" lon="104.8442108"><ele>280.82</ele><time>2026-05-16T03:42:27.000Z</time></trkpt>
        <trkpt lat="29.3697723" lon="104.8443285"><ele>279.26</ele><time>2026-05-16T03:42:39.000Z</time></trkpt>
        <trkpt lat="29.3697728" lon="104.8444494"><ele>278</ele><time>2026-05-16T03:42:55.000Z</time></trkpt>
        <trkpt lat="29.3697493" lon="104.8445561"><ele>276.69</ele><time>2026-05-16T03:43:09.000Z</time></trkpt>
        <trkpt lat="29.3696896" lon="104.8446483"><ele>276.49</ele><time>2026-05-16T03:43:21.000Z</time></trkpt>
        <trkpt lat="29.369727" lon="104.8447317"><ele>275.25</ele><time>2026-05-16T03:45:05.000Z</time></trkpt>
        <trkpt lat="29.3697579" lon="104.8448414"><ele>272.99</ele><time>2026-05-16T03:45:33.000Z</time></trkpt>
        <trkpt lat="29.3698077" lon="104.8449306"><ele>270.69</ele><time>2026-05-16T03:45:53.000Z</time></trkpt>
        <trkpt lat="29.3698842" lon="104.8449795"><ele>269.96</ele><time>2026-05-16T03:46:27.000Z</time></trkpt>
        <trkpt lat="29.3699341" lon="104.8450613"><ele>270.75</ele><time>2026-05-16T03:46:53.000Z</time></trkpt>
        <trkpt lat="29.3699787" lon="104.8451537"><ele>270.58</ele><time>2026-05-16T03:47:17.000Z</time></trkpt>
        <trkpt lat="29.370014" lon="104.8452533"><ele>269.01</ele><time>2026-05-16T03:47:43.000Z</time></trkpt>
        <trkpt lat="29.3700566" lon="104.8453512"><ele>267.25</ele><time>2026-05-16T03:48:07.000Z</time></trkpt>
        <trkpt lat="29.3700506" lon="104.8454527"><ele>265.2</ele><time>2026-05-16T03:48:59.000Z</time></trkpt>
        <trkpt lat="29.3700506" lon="104.8454527"><ele>265.2</ele><time>2026-05-16T03:49:27.000Z</time></trkpt>
        <trkpt lat="29.3701002" lon="104.8455238"><ele>265.81</ele><time>2026-05-16T03:49:42.000Z</time></trkpt>
        <trkpt lat="29.3701002" lon="104.8455238"><ele>265.81</ele><time>2026-05-16T03:49:48.000Z</time></trkpt>
        <trkpt lat="29.3701002" lon="104.8455238"><ele>265.81</ele><time>2026-05-16T03:50:05.000Z</time></trkpt>
        <trkpt lat="29.3701767" lon="104.8455804"><ele>262.19</ele><time>2026-05-16T03:50:08.000Z</time></trkpt>
        <trkpt lat="29.3701767" lon="104.8455804"><ele>262.19</ele><time>2026-05-16T03:50:14.000Z</time></trkpt>
        <trkpt lat="29.3702435" lon="104.8456606"><ele>261.35</ele><time>2026-05-16T03:50:26.000Z</time></trkpt>
        <trkpt lat="29.3702435" lon="104.8456606"><ele>261.35</ele><time>2026-05-16T03:51:23.000Z</time></trkpt>
        <trkpt lat="29.3703007" lon="104.8457512"><ele>260.9</ele><time>2026-05-16T03:51:44.000Z</time></trkpt>
        <trkpt lat="29.3703007" lon="104.8457512"><ele>260.9</ele><time>2026-05-16T03:51:46.000Z</time></trkpt>
        <trkpt lat="29.3703579" lon="104.8458541"><ele>260.28</ele><time>2026-05-16T03:52:04.000Z</time></trkpt>
        <trkpt lat="29.3703509" lon="104.8459504"><ele>261.36</ele><time>2026-05-16T03:52:18.000Z</time></trkpt>
        <trkpt lat="29.3702888" lon="104.8460327"><ele>262.56</ele><time>2026-05-16T03:52:52.000Z</time></trkpt>
        <trkpt lat="29.3702172" lon="104.8460808"><ele>264.45</ele><time>2026-05-16T03:53:04.000Z</time></trkpt>
        <trkpt lat="29.3702172" lon="104.8460808"><ele>264.45</ele><time>2026-05-16T03:53:29.000Z</time></trkpt>
        <trkpt lat="29.3701466" lon="104.8461518"><ele>265.82</ele><time>2026-05-16T03:53:30.000Z</time></trkpt>
        <trkpt lat="29.3701466" lon="104.8461518"><ele>265.82</ele><time>2026-05-16T03:53:36.000Z</time></trkpt>
        <trkpt lat="29.3701191" lon="104.8462496"><ele>266.02</ele><time>2026-05-16T03:53:54.000Z</time></trkpt>
        <trkpt lat="29.3701191" lon="104.8462496"><ele>266.02</ele><time>2026-05-16T03:54:13.000Z</time></trkpt>
        <trkpt lat="29.370046" lon="104.8463283"><ele>265.58</ele><time>2026-05-16T03:54:24.000Z</time></trkpt>
        <trkpt lat="29.370046" lon="104.8463283"><ele>265.58</ele><time>2026-05-16T03:54:24.000Z</time></trkpt>
        <trkpt lat="29.369998" lon="104.8464225"><ele>264.18</ele><time>2026-05-16T03:54:52.000Z</time></trkpt>
        <trkpt lat="29.3699527" lon="104.8465243"><ele>262.99</ele><time>2026-05-16T03:55:08.000Z</time></trkpt>
        <trkpt lat="29.3698962" lon="104.8466156"><ele>261.85</ele><time>2026-05-16T03:55:28.000Z</time></trkpt>
        <trkpt lat="29.3698463" lon="104.846706"><ele>261.15</ele><time>2026-05-16T03:55:48.000Z</time></trkpt>
        <trkpt lat="29.3698088" lon="104.8468006"><ele>260.46</ele><time>2026-05-16T03:56:18.000Z</time></trkpt>
        <trkpt lat="29.3697681" lon="104.8468936"><ele>260.72</ele><time>2026-05-16T03:56:46.000Z</time></trkpt>
        <trkpt lat="29.3697189" lon="104.8469863"><ele>260.44</ele><time>2026-05-16T03:57:06.000Z</time></trkpt>
        <trkpt lat="29.3696625" lon="104.8470701"><ele>259.81</ele><time>2026-05-16T03:57:28.000Z</time></trkpt>
        <trkpt lat="29.3696625" lon="104.8470701"><ele>259.81</ele><time>2026-05-16T03:57:45.000Z</time></trkpt>
        <trkpt lat="29.3696304" lon="104.8471671"><ele>258.96</ele><time>2026-05-16T03:57:56.000Z</time></trkpt>
        <trkpt lat="29.3696304" lon="104.8471671"><ele>258.96</ele><time>2026-05-16T03:58:18.000Z</time></trkpt>
        <trkpt lat="29.3695839" lon="104.8472654"><ele>257.53</ele><time>2026-05-16T03:58:34.000Z</time></trkpt>
        <trkpt lat="29.3695303" lon="104.8473517"><ele>257.22</ele><time>2026-05-16T03:58:52.000Z</time></trkpt>
        <trkpt lat="29.3694673" lon="104.8474332"><ele>256.96</ele><time>2026-05-16T03:59:06.000Z</time></trkpt>
        <trkpt lat="29.3694047" lon="104.8475155"><ele>257.22</ele><time>2026-05-16T03:59:22.000Z</time></trkpt>
        <trkpt lat="29.369359" lon="104.8476141"><ele>257.18</ele><time>2026-05-16T03:59:40.000Z</time></trkpt>
        <trkpt lat="29.3693287" lon="104.8477233"><ele>257.07</ele><time>2026-05-16T04:00:12.000Z</time></trkpt>
        <trkpt lat="29.3693226" lon="104.8478306"><ele>256.59</ele><time>2026-05-16T04:00:30.000Z</time></trkpt>
        <trkpt lat="29.3693249" lon="104.8479407"><ele>256.51</ele><time>2026-05-16T04:01:22.000Z</time></trkpt>
        <trkpt lat="29.369325" lon="104.8480564"><ele>255.88</ele><time>2026-05-16T04:01:46.000Z</time></trkpt>
        <trkpt lat="29.3693819" lon="104.848144"><ele>255.56</ele><time>2026-05-16T04:02:26.000Z</time></trkpt>
        <trkpt lat="29.3694702" lon="104.8481842"><ele>254.98</ele><time>2026-05-16T04:02:46.000Z</time></trkpt>
        <trkpt lat="29.3695679" lon="104.8481958"><ele>255.27</ele><time>2026-05-16T04:03:00.000Z</time></trkpt>
        <trkpt lat="29.3696685" lon="104.8482009"><ele>255.15</ele><time>2026-05-16T04:03:36.000Z</time></trkpt>
        <trkpt lat="29.3697699" lon="104.8482033"><ele>254.86</ele><time>2026-05-16T04:04:02.000Z</time></trkpt>
        <trkpt lat="29.3698665" lon="104.8481958"><ele>253.95</ele><time>2026-05-16T04:04:26.000Z</time></trkpt>
        <trkpt lat="29.3699628" lon="104.8481919"><ele>254.24</ele><time>2026-05-16T04:04:40.000Z</time></trkpt>
        <trkpt lat="29.3700568" lon="104.8481788"><ele>254.08</ele><time>2026-05-16T04:05:14.000Z</time></trkpt>
        <trkpt lat="29.3701463" lon="104.8481415"><ele>254.23</ele><time>2026-05-16T04:05:30.000Z</time></trkpt>
        <trkpt lat="29.3702369" lon="104.8481197"><ele>255.12</ele><time>2026-05-16T04:05:50.000Z</time></trkpt>
        <trkpt lat="29.370327" lon="104.8481333"><ele>256.6</ele><time>2026-05-16T04:06:26.000Z</time></trkpt>
        <trkpt lat="29.370414" lon="104.8481176"><ele>258.42</ele><time>2026-05-16T04:06:42.000Z</time></trkpt>
        <trkpt lat="29.3705063" lon="104.8481004"><ele>259.53</ele><time>2026-05-16T04:07:18.000Z</time></trkpt>
        <trkpt lat="29.3706017" lon="104.8480946"><ele>259.04</ele><time>2026-05-16T04:07:36.000Z</time></trkpt>
        <trkpt lat="29.3706706" lon="104.848035"><ele>260.31</ele><time>2026-05-16T04:08:04.000Z</time></trkpt>
        <trkpt lat="29.3706706" lon="104.848035"><ele>260.31</ele><time>2026-05-16T04:08:13.000Z</time></trkpt>
        <trkpt lat="29.3706706" lon="104.848035"><ele>260.31</ele><time>2026-05-16T04:08:44.000Z</time></trkpt>
        <trkpt lat="29.3706706" lon="104.848035"><ele>260.31</ele><time>2026-05-16T04:09:37.000Z</time></trkpt>
        <trkpt lat="29.3707562" lon="104.8480203"><ele>261.15</ele><time>2026-05-16T04:09:38.000Z</time></trkpt>
        <trkpt lat="29.3707562" lon="104.8480203"><ele>261.15</ele><time>2026-05-16T04:09:53.000Z</time></trkpt>
        <trkpt lat="29.3708466" lon="104.848015"><ele>261.5</ele><time>2026-05-16T04:10:07.000Z</time></trkpt>
        <trkpt lat="29.3709371" lon="104.8479996"><ele>262.26</ele><time>2026-05-16T04:10:27.000Z</time></trkpt>
        <trkpt lat="29.3709371" lon="104.8479996"><ele>262.26</ele><time>2026-05-16T04:10:33.000Z</time></trkpt>
        <trkpt lat="29.3710405" lon="104.847971"><ele>263.83</ele><time>2026-05-16T04:10:46.000Z</time></trkpt>
        <trkpt lat="29.3710405" lon="104.847971"><ele>263.83</ele><time>2026-05-16T04:10:46.000Z</time></trkpt>
        <trkpt lat="29.3711314" lon="104.8480041"><ele>269.69</ele><time>2026-05-16T04:11:10.000Z</time></trkpt>
        <trkpt lat="29.371216" lon="104.8480523"><ele>268.92</ele><time>2026-05-16T04:11:24.000Z</time></trkpt>
        <trkpt lat="29.371216" lon="104.8480523"><ele>268.92</ele><time>2026-05-16T04:11:49.000Z</time></trkpt>
        <trkpt lat="29.371216" lon="104.8480523"><ele>268.92</ele><time>2026-05-16T04:11:54.000Z</time></trkpt>
        <trkpt lat="29.371216" lon="104.8480523"><ele>268.92</ele><time>2026-05-16T04:12:07.000Z</time></trkpt>
        <trkpt lat="29.371303" lon="104.8480876"><ele>269</ele><time>2026-05-16T04:12:12.000Z</time></trkpt>
        <trkpt lat="29.371303" lon="104.8480876"><ele>269</ele><time>2026-05-16T04:12:12.000Z</time></trkpt>
        <trkpt lat="29.3713758" lon="104.8480473"><ele>267.7</ele><time>2026-05-16T04:12:32.000Z</time></trkpt>
        <trkpt lat="29.3714507" lon="104.8479902"><ele>267.14</ele><time>2026-05-16T04:12:58.000Z</time></trkpt>
        <trkpt lat="29.3715184" lon="104.8479171"><ele>268.03</ele><time>2026-05-16T04:13:22.000Z</time></trkpt>
        <trkpt lat="29.3715863" lon="104.8478425"><ele>269.87</ele><time>2026-05-16T04:13:54.000Z</time></trkpt>
        <trkpt lat="29.3716697" lon="104.8478109"><ele>271.24</ele><time>2026-05-16T04:14:32.000Z</time></trkpt>
        <trkpt lat="29.3717516" lon="104.8477667"><ele>274.57</ele><time>2026-05-16T04:14:46.000Z</time></trkpt>
        <trkpt lat="29.3718444" lon="104.8477283"><ele>273.89</ele><time>2026-05-16T04:15:20.000Z</time></trkpt>
        <trkpt lat="29.3719351" lon="104.8476808"><ele>271.41</ele><time>2026-05-16T04:15:30.000Z</time></trkpt>
        <trkpt lat="29.3720121" lon="104.8475957"><ele>270.57</ele><time>2026-05-16T04:15:42.000Z</time></trkpt>
        <trkpt lat="29.3720724" lon="104.8474908"><ele>268.9</ele><time>2026-05-16T04:15:52.000Z</time></trkpt>
        <trkpt lat="29.3720856" lon="104.8473765"><ele>269.64</ele><time>2026-05-16T04:16:16.000Z</time></trkpt>
        <trkpt lat="29.3720765" lon="104.8472649"><ele>269.53</ele><time>2026-05-16T04:16:32.000Z</time></trkpt>
        <trkpt lat="29.3720765" lon="104.8472649"><ele>269.53</ele><time>2026-05-16T04:16:49.000Z</time></trkpt>
        <trkpt lat="29.3720765" lon="104.8472649"><ele>269.53</ele><time>2026-05-16T04:16:56.000Z</time></trkpt>
        <trkpt lat="29.3720765" lon="104.8472649"><ele>269.53</ele><time>2026-05-16T04:17:39.000Z</time></trkpt>
        <trkpt lat="29.3719702" lon="104.8471225"><ele>269.8</ele><time>2026-05-16T04:17:50.000Z</time></trkpt>
        <trkpt lat="29.3719702" lon="104.8471225"><ele>269.8</ele><time>2026-05-16T04:17:50.000Z</time></trkpt>
        <trkpt lat="29.3720549" lon="104.8470851"><ele>269.34</ele><time>2026-05-16T04:18:06.000Z</time></trkpt>
        <trkpt lat="29.3721115" lon="104.8469941"><ele>268.74</ele><time>2026-05-16T04:18:34.000Z</time></trkpt>
        <trkpt lat="29.3721391" lon="104.8468924"><ele>269.75</ele><time>2026-05-16T04:18:56.000Z</time></trkpt>
        <trkpt lat="29.3721661" lon="104.8467913"><ele>271.16</ele><time>2026-05-16T04:19:16.000Z</time></trkpt>
        <trkpt lat="29.3721355" lon="104.8466921"><ele>271.42</ele><time>2026-05-16T04:19:30.000Z</time></trkpt>
        <trkpt lat="29.3721032" lon="104.8465862"><ele>272.23</ele><time>2026-05-16T04:19:44.000Z</time></trkpt>
        <trkpt lat="29.3721032" lon="104.8465862"><ele>272.23</ele><time>2026-05-16T04:20:03.000Z</time></trkpt>
        <trkpt lat="29.3721032" lon="104.8465862"><ele>272.23</ele><time>2026-05-16T04:20:06.000Z</time></trkpt>
        <trkpt lat="29.3721032" lon="104.8465862"><ele>272.23</ele><time>2026-05-16T04:20:19.000Z</time></trkpt>
        <trkpt lat="29.3721778" lon="104.8465554"><ele>272.01</ele><time>2026-05-16T04:20:52.000Z</time></trkpt>
        <trkpt lat="29.3721778" lon="104.8465554"><ele>272.01</ele><time>2026-05-16T04:22:03.000Z</time></trkpt>
        <trkpt lat="29.3721971" lon="104.8465337"><ele>271.89</ele><time>2026-05-16T04:22:07.000Z</time></trkpt>
        <trkpt lat="29.3722732" lon="104.8465018"><ele>271.76</ele><time>2026-05-16T04:22:23.000Z</time></trkpt>
        <trkpt lat="29.3722732" lon="104.8465018"><ele>271.76</ele><time>2026-05-16T04:22:29.000Z</time></trkpt>
        <trkpt lat="29.3722732" lon="104.8465018"><ele>271.76</ele><time>2026-05-16T04:22:38.000Z</time></trkpt>
        <trkpt lat="29.3722732" lon="104.8465018"><ele>271.76</ele><time>2026-05-16T04:23:01.000Z</time></trkpt>
        <trkpt lat="29.3723067" lon="104.8466135"><ele>272.33</ele><time>2026-05-16T04:23:06.000Z</time></trkpt>
        <trkpt lat="29.3723067" lon="104.8466135"><ele>272.33</ele><time>2026-05-16T04:23:46.000Z</time></trkpt>
        <trkpt lat="29.3723202" lon="104.8467247"><ele>271.88</ele><time>2026-05-16T04:24:06.000Z</time></trkpt>
        <trkpt lat="29.372252" lon="104.8467867"><ele>271.16</ele><time>2026-05-16T04:24:20.000Z</time></trkpt>
        <trkpt lat="29.3723057" lon="104.8468372"><ele>271.62</ele><time>2026-05-16T04:24:48.000Z</time></trkpt>
        <trkpt lat="29.3723057" lon="104.8468372"><ele>271.62</ele><time>2026-05-16T04:25:09.000Z</time></trkpt>
        <trkpt lat="29.3723057" lon="104.8468372"><ele>271.62</ele><time>2026-05-16T04:25:18.000Z</time></trkpt>
        <trkpt lat="29.3723057" lon="104.8468372"><ele>271.62</ele><time>2026-05-16T04:25:31.000Z</time></trkpt>
        <trkpt lat="29.372404" lon="104.8468968"><ele>270.51</ele><time>2026-05-16T04:25:44.000Z</time></trkpt>
        <trkpt lat="29.372404" lon="104.8468968"><ele>270.51</ele><time>2026-05-16T04:26:20.000Z</time></trkpt>
        <trkpt lat="29.3724789" lon="104.8469626"><ele>269.08</ele><time>2026-05-16T04:26:34.000Z</time></trkpt>
        <trkpt lat="29.3725438" lon="104.8470405"><ele>267.89</ele><time>2026-05-16T04:26:50.000Z</time></trkpt>
        <trkpt lat="29.3726217" lon="104.8471164"><ele>267.02</ele><time>2026-05-16T04:27:08.000Z</time></trkpt>
        <trkpt lat="29.3727051" lon="104.8471876"><ele>266.14</ele><time>2026-05-16T04:27:26.000Z</time></trkpt>
        <trkpt lat="29.3727998" lon="104.8472154"><ele>265.21</ele><time>2026-05-16T04:27:42.000Z</time></trkpt>
        <trkpt lat="29.3727998" lon="104.8472154"><ele>265.21</ele><time>2026-05-16T04:28:13.000Z</time></trkpt>
        <trkpt lat="29.372886" lon="104.8472522"><ele>265.17</ele><time>2026-05-16T04:28:22.000Z</time></trkpt>
        <trkpt lat="29.372886" lon="104.8472522"><ele>265.17</ele><time>2026-05-16T04:28:43.000Z</time></trkpt>
        <trkpt lat="29.372886" lon="104.8472522"><ele>265.17</ele><time>2026-05-16T04:29:11.000Z</time></trkpt>
        <trkpt lat="29.3729664" lon="104.8472999"><ele>264.91</ele><time>2026-05-16T04:29:12.000Z</time></trkpt>
        <trkpt lat="29.3729664" lon="104.8472999"><ele>264.91</ele><time>2026-05-16T04:29:23.000Z</time></trkpt>
        <trkpt lat="29.3730604" lon="104.8473235"><ele>264.27</ele><time>2026-05-16T04:29:43.000Z</time></trkpt>
        <trkpt lat="29.3731598" lon="104.8473333"><ele>264.44</ele><time>2026-05-16T04:29:53.000Z</time></trkpt>
        <trkpt lat="29.373254" lon="104.847373"><ele>264.41</ele><time>2026-05-16T04:30:05.000Z</time></trkpt>
        <trkpt lat="29.373312" lon="104.8474576"><ele>264.13</ele><time>2026-05-16T04:30:19.000Z</time></trkpt>
        <trkpt lat="29.3733225" lon="104.8474845"><ele>264.28</ele><time>2026-05-16T04:30:21.000Z</time></trkpt>
        <trkpt lat="29.373328" lon="104.8475661"><ele>264.37</ele><time>2026-05-16T04:30:47.000Z</time></trkpt>
        <trkpt lat="29.3733219" lon="104.8476708"><ele>264.82</ele><time>2026-05-16T04:31:03.000Z</time></trkpt>
        <trkpt lat="29.3733357" lon="104.8477766"><ele>265.54</ele><time>2026-05-16T04:31:41.000Z</time></trkpt>
        <trkpt lat="29.3733196" lon="104.8478817"><ele>265.74</ele><time>2026-05-16T04:32:13.000Z</time></trkpt>
        <trkpt lat="29.373281" lon="104.8479802"><ele>266.06</ele><time>2026-05-16T04:32:51.000Z</time></trkpt>
        <trkpt lat="29.373222" lon="104.8480689"><ele>265.65</ele><time>2026-05-16T04:33:13.000Z</time></trkpt>
        <trkpt lat="29.3731619" lon="104.8481616"><ele>266.13</ele><time>2026-05-16T04:33:29.000Z</time></trkpt>
        <trkpt lat="29.3730999" lon="104.8482355"><ele>267.21</ele><time>2026-05-16T04:33:53.000Z</time></trkpt>
        <trkpt lat="29.3730168" lon="104.8482736"><ele>268.28</ele><time>2026-05-16T04:34:35.000Z</time></trkpt>
        <trkpt lat="29.3729219" lon="104.848293"><ele>268.92</ele><time>2026-05-16T04:34:51.000Z</time></trkpt>
        <trkpt lat="29.3728221" lon="104.8483173"><ele>268.69</ele><time>2026-05-16T04:35:07.000Z</time></trkpt>
        <trkpt lat="29.3727296" lon="104.848351"><ele>268.14</ele><time>2026-05-16T04:35:19.000Z</time></trkpt>
        <trkpt lat="29.3726616" lon="104.8484342"><ele>267.99</ele><time>2026-05-16T04:35:49.000Z</time></trkpt>
        <trkpt lat="29.37261" lon="104.8485291"><ele>267.39</ele><time>2026-05-16T04:36:03.000Z</time></trkpt>
        <trkpt lat="29.37261" lon="104.8485291"><ele>267.39</ele><time>2026-05-16T04:36:17.000Z</time></trkpt>
        <trkpt lat="29.3725824" lon="104.8486528"><ele>266.29</ele><time>2026-05-16T04:36:28.000Z</time></trkpt>
        <trkpt lat="29.3725824" lon="104.8486528"><ele>266.29</ele><time>2026-05-16T04:36:40.000Z</time></trkpt>
        <trkpt lat="29.3725372" lon="104.8487525"><ele>264.41</ele><time>2026-05-16T04:36:54.000Z</time></trkpt>
        <trkpt lat="29.3724695" lon="104.8488257"><ele>263.58</ele><time>2026-05-16T04:37:08.000Z</time></trkpt>
        <trkpt lat="29.3723738" lon="104.8488182"><ele>263.35</ele><time>2026-05-16T04:37:22.000Z</time></trkpt>
        <trkpt lat="29.372338" lon="104.8487836"><ele>262.2</ele><time>2026-05-16T04:37:32.000Z</time></trkpt>
        <trkpt lat="29.3722651" lon="104.848766"><ele>262.09</ele><time>2026-05-16T04:38:00.000Z</time></trkpt>
        <trkpt lat="29.3721753" lon="104.8487298"><ele>261.08</ele><time>2026-05-16T04:38:14.000Z</time></trkpt>
        <trkpt lat="29.3721753" lon="104.8487298"><ele>261.08</ele><time>2026-05-16T04:38:33.000Z</time></trkpt>
        <trkpt lat="29.3720566" lon="104.8487406"><ele>260.65</ele><time>2026-05-16T04:38:48.000Z</time></trkpt>
        <trkpt lat="29.3720566" lon="104.8487406"><ele>260.65</ele><time>2026-05-16T04:38:48.000Z</time></trkpt>
        <trkpt lat="29.3719938" lon="104.8488201"><ele>258.4</ele><time>2026-05-16T04:39:00.000Z</time></trkpt>
        <trkpt lat="29.3719938" lon="104.8488201"><ele>258.4</ele><time>2026-05-16T04:39:17.000Z</time></trkpt>
        <trkpt lat="29.3719394" lon="104.8489251"><ele>258.72</ele><time>2026-05-16T04:39:18.000Z</time></trkpt>
        <trkpt lat="29.3719394" lon="104.8489251"><ele>258.72</ele><time>2026-05-16T04:39:27.000Z</time></trkpt>
        <trkpt lat="29.3719131" lon="104.8490362"><ele>257.92</ele><time>2026-05-16T04:39:45.000Z</time></trkpt>
        <trkpt lat="29.3718896" lon="104.8491536"><ele>256.63</ele><time>2026-05-16T04:39:57.000Z</time></trkpt>
        <trkpt lat="29.3718342" lon="104.8492373"><ele>255.81</ele><time>2026-05-16T04:40:07.000Z</time></trkpt>
        <trkpt lat="29.3717433" lon="104.8492769"><ele>256.33</ele><time>2026-05-16T04:40:19.000Z</time></trkpt>
        <trkpt lat="29.3716464" lon="104.849323"><ele>256.24</ele><time>2026-05-16T04:40:29.000Z</time></trkpt>
        <trkpt lat="29.3716167" lon="104.8493377"><ele>255.12</ele><time>2026-05-16T04:40:35.000Z</time></trkpt>
        <trkpt lat="29.3716548" lon="104.8492116"><ele>254.21</ele><time>2026-05-16T04:41:49.000Z</time></trkpt>
        <trkpt lat="29.3717176" lon="104.8491355"><ele>253.96</ele><time>2026-05-16T04:42:05.000Z</time></trkpt>
        <trkpt lat="29.3717176" lon="104.8491355"><ele>253.96</ele><time>2026-05-16T04:42:19.000Z</time></trkpt>
        <trkpt lat="29.3717151" lon="104.8492128"><ele>253.83</ele><time>2026-05-16T04:42:22.000Z</time></trkpt>
        <trkpt lat="29.3717151" lon="104.8492128"><ele>253.83</ele><time>2026-05-16T04:42:54.000Z</time></trkpt>
        <trkpt lat="29.3716655" lon="104.8493164"><ele>253.4</ele><time>2026-05-16T04:43:02.000Z</time></trkpt>
        <trkpt lat="29.3716752" lon="104.8493791"><ele>252.83</ele><time>2026-05-16T04:43:08.000Z</time></trkpt>
        <trkpt lat="29.3716752" lon="104.8493791"><ele>252.83</ele><time>2026-05-16T04:43:27.000Z</time></trkpt>
        <trkpt lat="29.3716465" lon="104.8491377"><ele>249.97</ele><time>2026-05-16T04:44:50.000Z</time></trkpt>
        <trkpt lat="29.3716465" lon="104.8491377"><ele>249.97</ele><time>2026-05-16T04:44:54.000Z</time></trkpt>
        <trkpt lat="29.3716244" lon="104.8492538"><ele>247.41</ele><time>2026-05-16T04:44:59.000Z</time></trkpt>
        <trkpt lat="29.3716618" lon="104.8491889"><ele>242.96</ele><time>2026-05-16T04:45:15.000Z</time></trkpt>
        <trkpt lat="29.3717207" lon="104.849101"><ele>249.17</ele><time>2026-05-16T04:45:27.000Z</time></trkpt>
        <trkpt lat="29.3717976" lon="104.8490031"><ele>251.98</ele><time>2026-05-16T04:45:37.000Z</time></trkpt>
        <trkpt lat="29.3718468" lon="104.8488843"><ele>253</ele><time>2026-05-16T04:45:47.000Z</time></trkpt>
        <trkpt lat="29.371863" lon="104.8487519"><ele>254.34</ele><time>2026-05-16T04:45:57.000Z</time></trkpt>
        <trkpt lat="29.3718542" lon="104.8486197"><ele>254.9</ele><time>2026-05-16T04:46:07.000Z</time></trkpt>
        <trkpt lat="29.3718518" lon="104.8484919"><ele>255.14</ele><time>2026-05-16T04:46:17.000Z</time></trkpt>
        <trkpt lat="29.3718585" lon="104.8483695"><ele>255.57</ele><time>2026-05-16T04:46:27.000Z</time></trkpt>
        <trkpt lat="29.3718668" lon="104.84826"><ele>256.16</ele><time>2026-05-16T04:46:39.000Z</time></trkpt>
        <trkpt lat="29.3719097" lon="104.8481701"><ele>257.31</ele><time>2026-05-16T04:46:59.000Z</time></trkpt>
        <trkpt lat="29.3719754" lon="104.8480978"><ele>258.02</ele><time>2026-05-16T04:47:49.000Z</time></trkpt>
        <trkpt lat="29.3719754" lon="104.8480978"><ele>258.02</ele><time>2026-05-16T04:47:59.000Z</time></trkpt>
        <trkpt lat="29.3720537" lon="104.8480379"><ele>256.93</ele><time>2026-05-16T04:48:02.000Z</time></trkpt>
        <trkpt lat="29.3720537" lon="104.8480379"><ele>256.93</ele><time>2026-05-16T04:48:21.000Z</time></trkpt>
        <trkpt lat="29.3721461" lon="104.8480283"><ele>258.47</ele><time>2026-05-16T04:48:41.000Z</time></trkpt>
        <trkpt lat="29.3722433" lon="104.8480083"><ele>259.48</ele><time>2026-05-16T04:49:01.000Z</time></trkpt>
        <trkpt lat="29.3722433" lon="104.8480083"><ele>259.48</ele><time>2026-05-16T04:50:13.000Z</time></trkpt>
        <trkpt lat="29.3722433" lon="104.8480083"><ele>259.48</ele><time>2026-05-16T04:50:16.000Z</time></trkpt>
        <trkpt lat="29.3722433" lon="104.8480083"><ele>259.48</ele><time>2026-05-16T04:50:55.000Z</time></trkpt>
        <trkpt lat="29.3722079" lon="104.8481125"><ele>259.92</ele><time>2026-05-16T04:51:02.000Z</time></trkpt>
        <trkpt lat="29.3722079" lon="104.8481125"><ele>259.92</ele><time>2026-05-16T04:51:02.000Z</time></trkpt>
        <trkpt lat="29.372274" lon="104.8480396"><ele>261.77</ele><time>2026-05-16T04:51:22.000Z</time></trkpt>
        <trkpt lat="29.3723639" lon="104.8480197"><ele>260.75</ele><time>2026-05-16T04:51:40.000Z</time></trkpt>
        <trkpt lat="29.3724557" lon="104.8479919"><ele>259.94</ele><time>2026-05-16T04:51:54.000Z</time></trkpt>
        <trkpt lat="29.3725362" lon="104.8479414"><ele>259.65</ele><time>2026-05-16T04:52:14.000Z</time></trkpt>
        <trkpt lat="29.3725362" lon="104.8479414"><ele>259.65</ele><time>2026-05-16T04:52:29.000Z</time></trkpt>
        <trkpt lat="29.3725804" lon="104.8478494"><ele>259.8</ele><time>2026-05-16T04:52:46.000Z</time></trkpt>
        <trkpt lat="29.3725804" lon="104.8478494"><ele>259.8</ele><time>2026-05-16T04:52:52.000Z</time></trkpt>
        <trkpt lat="29.3726187" lon="104.8477516"><ele>258.19</ele><time>2026-05-16T04:53:00.000Z</time></trkpt>
        <trkpt lat="29.3726605" lon="104.8476502"><ele>258.09</ele><time>2026-05-16T04:53:10.000Z</time></trkpt>
        <trkpt lat="29.3726847" lon="104.8475423"><ele>258.12</ele><time>2026-05-16T04:53:20.000Z</time></trkpt>
        <trkpt lat="29.3727576" lon="104.8474719"><ele>258.01</ele><time>2026-05-16T04:53:32.000Z</time></trkpt>
        <trkpt lat="29.3728568" lon="104.8474367"><ele>260.14</ele><time>2026-05-16T04:53:44.000Z</time></trkpt>
        <trkpt lat="29.3729603" lon="104.8474493"><ele>260.2</ele><time>2026-05-16T04:53:56.000Z</time></trkpt>
        <trkpt lat="29.3730567" lon="104.8474811"><ele>261.78</ele><time>2026-05-16T04:54:06.000Z</time></trkpt>
        <trkpt lat="29.3731336" lon="104.8475516"><ele>261.31</ele><time>2026-05-16T04:54:18.000Z</time></trkpt>
        <trkpt lat="29.3732161" lon="104.8475525"><ele>260.2</ele><time>2026-05-16T04:54:34.000Z</time></trkpt>
        <trkpt lat="29.3733028" lon="104.8475305"><ele>260.89</ele><time>2026-05-16T04:54:54.000Z</time></trkpt>
        <trkpt lat="29.3733076" lon="104.847442"><ele>262</ele><time>2026-05-16T04:55:08.000Z</time></trkpt>
        <trkpt lat="29.373278" lon="104.847335"><ele>262.56</ele><time>2026-05-16T04:55:20.000Z</time></trkpt>
        <trkpt lat="29.3732468" lon="104.8472785"><ele>262.98</ele><time>2026-05-16T04:55:30.000Z</time></trkpt>
        <trkpt lat="29.3732468" lon="104.8472785"><ele>262.98</ele><time>2026-05-16T04:55:43.000Z</time></trkpt>
        <trkpt lat="29.3732468" lon="104.8472785"><ele>262.98</ele><time>2026-05-16T04:55:48.000Z</time></trkpt>
        <trkpt lat="29.3732468" lon="104.8472785"><ele>262.98</ele><time>2026-05-16T04:56:07.000Z</time></trkpt>
        <trkpt lat="29.3732468" lon="104.8472785"><ele>262.98</ele><time>2026-05-16T04:56:14.000Z</time></trkpt>
        <trkpt lat="29.3732468" lon="104.8472785"><ele>262.98</ele><time>2026-05-16T04:56:31.000Z</time></trkpt>
        <trkpt lat="29.3732468" lon="104.8472785"><ele>262.98</ele><time>2026-05-16T04:56:46.000Z</time></trkpt>
        <trkpt lat="29.3732468" lon="104.8472785"><ele>262.98</ele><time>2026-05-16T04:57:11.000Z</time></trkpt>
        <trkpt lat="29.3731468" lon="104.8472201"><ele>263.2</ele><time>2026-05-16T04:57:20.000Z</time></trkpt>
        <trkpt lat="29.3731468" lon="104.8472201"><ele>263.2</ele><time>2026-05-16T04:57:34.000Z</time></trkpt>
        <trkpt lat="29.3730735" lon="104.8471536"><ele>265.25</ele><time>2026-05-16T04:57:46.000Z</time></trkpt>
        <trkpt lat="29.3729987" lon="104.8470941"><ele>266.51</ele><time>2026-05-16T04:58:00.000Z</time></trkpt>
        <trkpt lat="29.3729077" lon="104.8470389"><ele>266.43</ele><time>2026-05-16T04:58:14.000Z</time></trkpt>
        <trkpt lat="29.372819" lon="104.8469858"><ele>265.55</ele><time>2026-05-16T04:58:24.000Z</time></trkpt>
        <trkpt lat="29.3727418" lon="104.8469302"><ele>265.2</ele><time>2026-05-16T04:58:42.000Z</time></trkpt>
        <trkpt lat="29.3727418" lon="104.8469302"><ele>265.2</ele><time>2026-05-16T04:58:49.000Z</time></trkpt>
        <trkpt lat="29.3726513" lon="104.8468996"><ele>263.95</ele><time>2026-05-16T04:58:50.000Z</time></trkpt>
        <trkpt lat="29.3726513" lon="104.8468996"><ele>263.95</ele><time>2026-05-16T04:58:58.000Z</time></trkpt>
        <trkpt lat="29.3725688" lon="104.8468536"><ele>263.06</ele><time>2026-05-16T04:59:08.000Z</time></trkpt>
        <trkpt lat="29.3724938" lon="104.8467903"><ele>262.17</ele><time>2026-05-16T04:59:18.000Z</time></trkpt>
        <trkpt lat="29.3724473" lon="104.8466892"><ele>261.35</ele><time>2026-05-16T04:59:30.000Z</time></trkpt>
        <trkpt lat="29.3724089" lon="104.8465765"><ele>259.93</ele><time>2026-05-16T04:59:40.000Z</time></trkpt>
        <trkpt lat="29.3723618" lon="104.8464691"><ele>259.49</ele><time>2026-05-16T04:59:50.000Z</time></trkpt>
        <trkpt lat="29.3723219" lon="104.846354"><ele>259.87</ele><time>2026-05-16T05:00:00.000Z</time></trkpt>
        <trkpt lat="29.3722761" lon="104.8462549"><ele>260.16</ele><time>2026-05-16T05:00:10.000Z</time></trkpt>
        <trkpt lat="29.3722544" lon="104.8461501"><ele>261.74</ele><time>2026-05-16T05:00:20.000Z</time></trkpt>
        <trkpt lat="29.3722732" lon="104.8460439"><ele>262.57</ele><time>2026-05-16T05:00:30.000Z</time></trkpt>
        <trkpt lat="29.3723467" lon="104.8459689"><ele>262.53</ele><time>2026-05-16T05:00:42.000Z</time></trkpt>
        <trkpt lat="29.3724433" lon="104.8459417"><ele>262.6</ele><time>2026-05-16T05:00:52.000Z</time></trkpt>
        <trkpt lat="29.3725466" lon="104.8459005"><ele>263.53</ele><time>2026-05-16T05:01:04.000Z</time></trkpt>
        <trkpt lat="29.3726492" lon="104.8458639"><ele>263.82</ele><time>2026-05-16T05:01:16.000Z</time></trkpt>
        <trkpt lat="29.372736" lon="104.8458177"><ele>263.4</ele><time>2026-05-16T05:01:26.000Z</time></trkpt>
        <trkpt lat="29.3728165" lon="104.8457589"><ele>262.25</ele><time>2026-05-16T05:01:36.000Z</time></trkpt>
        <trkpt lat="29.3729025" lon="104.8457165"><ele>261.36</ele><time>2026-05-16T05:01:46.000Z</time></trkpt>
        <trkpt lat="29.3729903" lon="104.8456822"><ele>261.15</ele><time>2026-05-16T05:01:56.000Z</time></trkpt>
        <trkpt lat="29.3730822" lon="104.8456866"><ele>261.1</ele><time>2026-05-16T05:02:08.000Z</time></trkpt>
        <trkpt lat="29.3731779" lon="104.845693"><ele>260.95</ele><time>2026-05-16T05:02:44.000Z</time></trkpt>
        <trkpt lat="29.3732267" lon="104.8457802"><ele>261.72</ele><time>2026-05-16T05:03:00.000Z</time></trkpt>
        <trkpt lat="29.3732267" lon="104.8457802"><ele>261.72</ele><time>2026-05-16T05:03:15.000Z</time></trkpt>
        <trkpt lat="29.3733094" lon="104.8458225"><ele>262.56</ele><time>2026-05-16T05:03:18.000Z</time></trkpt>
        <trkpt lat="29.3733094" lon="104.8458225"><ele>262.56</ele><time>2026-05-16T05:03:22.000Z</time></trkpt>
        <trkpt lat="29.3734025" lon="104.8457953"><ele>262.62</ele><time>2026-05-16T05:03:36.000Z</time></trkpt>
        <trkpt lat="29.3734604" lon="104.8457041"><ele>263.35</ele><time>2026-05-16T05:03:52.000Z</time></trkpt>
        <trkpt lat="29.3734775" lon="104.8455856"><ele>264.15</ele><time>2026-05-16T05:04:04.000Z</time></trkpt>
        <trkpt lat="29.3734409" lon="104.8454781"><ele>265.14</ele><time>2026-05-16T05:04:16.000Z</time></trkpt>
        <trkpt lat="29.3733925" lon="104.8453778"><ele>265.89</ele><time>2026-05-16T05:04:28.000Z</time></trkpt>
        <trkpt lat="29.3733365" lon="104.8452867"><ele>267.41</ele><time>2026-05-16T05:04:38.000Z</time></trkpt>
        <trkpt lat="29.3732938" lon="104.8451859"><ele>269.56</ele><time>2026-05-16T05:04:50.000Z</time></trkpt>
        <trkpt lat="29.3732493" lon="104.8450923"><ele>271.63</ele><time>2026-05-16T05:05:04.000Z</time></trkpt>
        <trkpt lat="29.3731805" lon="104.845027"><ele>273.19</ele><time>2026-05-16T05:05:10.000Z</time></trkpt>
        <trkpt lat="29.3731536" lon="104.8449987"><ele>276.13</ele><time>2026-05-16T05:05:26.000Z</time></trkpt>
        <trkpt lat="29.3731536" lon="104.8449987"><ele>276.13</ele><time>2026-05-16T05:05:43.000Z</time></trkpt>
        <trkpt lat="29.3731462" lon="104.8449162"><ele>275.55</ele><time>2026-05-16T05:05:52.000Z</time></trkpt>
        <trkpt lat="29.3731462" lon="104.8449162"><ele>275.55</ele><time>2026-05-16T05:06:16.000Z</time></trkpt>
        <trkpt lat="29.373145" lon="104.8448073"><ele>274.34</ele><time>2026-05-16T05:06:38.000Z</time></trkpt>
        <trkpt lat="29.3731212" lon="104.844704"><ele>274.3</ele><time>2026-05-16T05:06:56.000Z</time></trkpt>
        <trkpt lat="29.3731212" lon="104.844704"><ele>274.3</ele><time>2026-05-16T05:07:11.000Z</time></trkpt>
        <trkpt lat="29.3731165" lon="104.8445953"><ele>275.04</ele><time>2026-05-16T05:07:12.000Z</time></trkpt>
        <trkpt lat="29.3731165" lon="104.8445953"><ele>275.04</ele><time>2026-05-16T05:07:34.000Z</time></trkpt>
        <trkpt lat="29.373114" lon="104.8444797"><ele>274.24</ele><time>2026-05-16T05:07:50.000Z</time></trkpt>
        <trkpt lat="29.3731137" lon="104.8443594"><ele>273.84</ele><time>2026-05-16T05:08:06.000Z</time></trkpt>
        <trkpt lat="29.3731107" lon="104.8442458"><ele>273.28</ele><time>2026-05-16T05:08:18.000Z</time></trkpt>
        <trkpt lat="29.3731028" lon="104.8441378"><ele>273.59</ele><time>2026-05-16T05:08:32.000Z</time></trkpt>
        <trkpt lat="29.3730875" lon="104.8440355"><ele>273.92</ele><time>2026-05-16T05:08:46.000Z</time></trkpt>
        <trkpt lat="29.3730572" lon="104.8439256"><ele>273.89</ele><time>2026-05-16T05:09:00.000Z</time></trkpt>
        <trkpt lat="29.373031" lon="104.8438126"><ele>273.59</ele><time>2026-05-16T05:09:14.000Z</time></trkpt>
        <trkpt lat="29.3730205" lon="104.843699"><ele>273.09</ele><time>2026-05-16T05:09:26.000Z</time></trkpt>
        <trkpt lat="29.373084" lon="104.8436465"><ele>272.72</ele><time>2026-05-16T05:09:48.000Z</time></trkpt>
        <trkpt lat="29.3731871" lon="104.8436495"><ele>273.17</ele><time>2026-05-16T05:10:02.000Z</time></trkpt>
        <trkpt lat="29.3732963" lon="104.8436452"><ele>273.09</ele><time>2026-05-16T05:10:14.000Z</time></trkpt>
        <trkpt lat="29.3734017" lon="104.8436282"><ele>273.12</ele><time>2026-05-16T05:10:26.000Z</time></trkpt>
        <trkpt lat="29.3734929" lon="104.8435774"><ele>273.08</ele><time>2026-05-16T05:10:38.000Z</time></trkpt>
        <trkpt lat="29.3735826" lon="104.8435041"><ele>273.09</ele><time>2026-05-16T05:10:50.000Z</time></trkpt>
        <trkpt lat="29.3736618" lon="104.8434306"><ele>273.13</ele><time>2026-05-16T05:11:00.000Z</time></trkpt>
        <trkpt lat="29.37373" lon="104.8433505"><ele>272.69</ele><time>2026-05-16T05:11:10.000Z</time></trkpt>
        <trkpt lat="29.3737636" lon="104.8433133"><ele>272.55</ele><time>2026-05-16T05:11:14.000Z</time></trkpt>
        <trkpt lat="29.3738235" lon="104.8432556"><ele>272.47</ele><time>2026-05-16T05:11:24.000Z</time></trkpt>
        <trkpt lat="29.3738937" lon="104.8431949"><ele>272.73</ele><time>2026-05-16T05:11:32.000Z</time></trkpt>
        <trkpt lat="29.3739646" lon="104.8431223"><ele>272.74</ele><time>2026-05-16T05:11:42.000Z</time></trkpt>
        <trkpt lat="29.3740462" lon="104.8430476"><ele>272.21</ele><time>2026-05-16T05:11:54.000Z</time></trkpt>
        <trkpt lat="29.3741336" lon="104.8429838"><ele>272.45</ele><time>2026-05-16T05:12:10.000Z</time></trkpt>
        <trkpt lat="29.3742102" lon="104.8429018"><ele>272.58</ele><time>2026-05-16T05:12:30.000Z</time></trkpt>
        <trkpt lat="29.3742908" lon="104.8428459"><ele>273.55</ele><time>2026-05-16T05:12:42.000Z</time></trkpt>
        <trkpt lat="29.3743564" lon="104.8427676"><ele>273.46</ele><time>2026-05-16T05:13:04.000Z</time></trkpt>
        <trkpt lat="29.3744064" lon="104.8426762"><ele>271.91</ele><time>2026-05-16T05:13:20.000Z</time></trkpt>
        <trkpt lat="29.3744064" lon="104.8426762"><ele>271.91</ele><time>2026-05-16T05:14:05.000Z</time></trkpt>
        <trkpt lat="29.3744544" lon="104.8425781"><ele>272.28</ele><time>2026-05-16T05:14:10.000Z</time></trkpt>
        <trkpt lat="29.3744544" lon="104.8425781"><ele>272.28</ele><time>2026-05-16T05:14:10.000Z</time></trkpt>
        <trkpt lat="29.3745347" lon="104.8425234"><ele>272.47</ele><time>2026-05-16T05:14:44.000Z</time></trkpt>
        <trkpt lat="29.374611" lon="104.8424642"><ele>272.33</ele><time>2026-05-16T05:14:54.000Z</time></trkpt>
        <trkpt lat="29.3746897" lon="104.8424065"><ele>272.15</ele><time>2026-05-16T05:15:06.000Z</time></trkpt>
        <trkpt lat="29.3747391" lon="104.8423149"><ele>271.98</ele><time>2026-05-16T05:15:20.000Z</time></trkpt>
        <trkpt lat="29.3747571" lon="104.8422071"><ele>271.12</ele><time>2026-05-16T05:15:32.000Z</time></trkpt>
        <trkpt lat="29.3747571" lon="104.8422071"><ele>271.12</ele><time>2026-05-16T05:15:38.000Z</time></trkpt>
      </trkseg>
  </trk>
</gpx>